sensor_id;sensor_type;location;lat;lon;timestamp;pressure;altitude;pressure_sealevel;temperature;humidity
54453;BME280;40363;52.270;10.546;2023-05-23T00:01:02;75636.41;;;-147.06;100.00
54453;BME280;40363;52.270;10.546;2023-05-23T00:03:31;75642.56;;;-147.06;100.00
54453;BME280;40363;52.270;10.546;2023-05-23T00:05:57;75644.63;;;-147.06;100.00
54453;BME280;40363;52.270;10.546;2023-05-23T00:08:24;75644.63;;;-147.06;100.00
54453;BME280;40363;52.270;10.546;2023-05-23T00:10:50;75638.47;;;-147.06;100.00
54453;BME280;40363;52.270;10.546;2023-05-23T00:13:18;75628.19;;;-147.06;100.00
54453;BME280;40363;52.270;10.546;2023-05-23T00:15:45;75628.19;;;-147.06;100.00
54453;BME280;40363;52.270;10.546;2023-05-23T00:18:13;75636.41;;;-147.06;100.00
54453;BME280;40363;52.270;10.546;2023-05-23T00:20:41;75624.06;;;-147.06;100.00
54453;BME280;40363;52.270;10.546;2023-05-23T00:23:08;75626.13;;;-147.06;100.00
54453;BME280;40363;52.270;10.546;2023-05-23T00:25:34;75638.47;;;-147.06;100.00
54453;BME280;40363;52.270;10.546;2023-05-23T00:28:01;75630.25;;;-147.06;100.00
54453;BME280;40363;52.270;10.546;2023-05-23T00:30:32;75632.28;;;-147.06;100.00
54453;BME280;40363;52.270;10.546;2023-05-23T00:32:59;75644.63;;;-147.06;100.00
54453;BME280;40363;52.270;10.546;2023-05-23T00:35:25;75646.69;;;-147.06;100.00
54453;BME280;40363;52.270;10.546;2023-05-23T00:37:52;75648.72;;;-147.06;100.00
54453;BME280;40363;52.270;10.546;2023-05-23T00:40:19;75640.50;;;-147.06;100.00
54453;BME280;40363;52.270;10.546;2023-05-23T00:42:47;75644.63;;;-147.06;100.00
54453;BME280;40363;52.270;10.546;2023-05-23T00:45:14;75661.06;;;-147.06;100.00
54453;BME280;40363;52.270;10.546;2023-05-23T00:47:43;75665.16;;;-147.06;100.00
54453;BME280;40363;52.270;10.546;2023-05-23T00:50:11;75663.13;;;-147.06;100.00
54453;BME280;40363;52.270;10.546;2023-05-23T00:52:39;75665.16;;;-147.06;100.00
54453;BME280;40363;52.270;10.546;2023-05-23T00:55:08;75671.34;;;-147.06;100.00
54453;BME280;40363;52.270;10.546;2023-05-23T00:57:34;75675.44;;;-147.06;100.00
54453;BME280;40363;52.270;10.546;2023-05-23T01:00:05;75673.41;;;-147.06;100.00
54453;BME280;40363;52.270;10.546;2023-05-23T01:02:36;75691.88;;;-147.06;100.00
54453;BME280;40363;52.270;10.546;2023-05-23T01:05:08;75683.66;;;-147.06;100.00
54453;BME280;40363;52.270;10.546;2023-05-23T01:07:35;75691.88;;;-147.06;100.00
54453;BME280;40363;52.270;10.546;2023-05-23T01:10:02;75700.09;;;-147.06;100.00
54453;BME280;40363;52.270;10.546;2023-05-23T01:12:37;75704.22;;;-147.06;100.00
54453;BME280;40363;52.270;10.546;2023-05-23T01:15:09;75700.09;;;-147.06;100.00
54453;BME280;40363;52.270;10.546;2023-05-23T01:17:41;75704.22;;;-147.06;100.00
54453;BME280;40363;52.270;10.546;2023-05-23T01:20:14;75704.22;;;-147.06;100.00
54453;BME280;40363;52.270;10.546;2023-05-23T01:22:54;75708.31;;;-147.06;100.00
54453;BME280;40363;52.270;10.546;2023-05-23T01:25:43;75706.28;;;-147.06;100.00
54453;BME280;40363;52.270;10.546;2023-05-23T01:28:16;75710.38;;;-147.06;100.00
54453;BME280;40363;52.270;10.546;2023-05-23T01:30:45;75714.50;;;-147.06;100.00
54453;BME280;40363;52.270;10.546;2023-05-23T01:33:15;75720.66;;;-147.06;100.00
54453;BME280;40363;52.270;10.546;2023-05-23T01:35:42;75728.88;;;-147.06;100.00
54453;BME280;40363;52.270;10.546;2023-05-23T01:38:09;75733.00;;;-147.06;100.00
54453;BME280;40363;52.270;10.546;2023-05-23T01:40:36;75728.88;;;-147.06;100.00
54453;BME280;40363;52.270;10.546;2023-05-23T01:43:03;75737.09;;;-147.06;100.00
54453;BME280;40363;52.270;10.546;2023-05-23T01:45:31;75733.00;;;-147.06;100.00
54453;BME280;40363;52.270;10.546;2023-05-23T01:47:59;75745.31;;;-147.06;100.00
54453;BME280;40363;52.270;10.546;2023-05-23T01:50:27;75741.22;;;-147.06;100.00
54453;BME280;40363;52.270;10.546;2023-05-23T01:52:55;75753.53;;;-147.06;100.00
54453;BME280;40363;52.270;10.546;2023-05-23T01:55:23;75757.66;;;-147.06;100.00
54453;BME280;40363;52.270;10.546;2023-05-23T01:57:52;75761.75;;;-147.06;100.00
54453;BME280;40363;52.270;10.546;2023-05-23T02:00:20;75761.75;;;-147.06;100.00
54453;BME280;40363;52.270;10.546;2023-05-23T02:02:48;75761.75;;;-147.06;100.00
54453;BME280;40363;52.270;10.546;2023-05-23T02:05:15;75757.66;;;-147.06;100.00
54453;BME280;40363;52.270;10.546;2023-05-23T02:07:41;75755.59;;;-147.06;100.00
54453;BME280;40363;52.270;10.546;2023-05-23T02:10:08;75749.44;;;-147.06;100.00
54453;BME280;40363;52.270;10.546;2023-05-23T02:12:35;75763.81;;;-147.06;100.00
54453;BME280;40363;52.270;10.546;2023-05-23T02:15:02;75755.59;;;-147.06;100.00
54453;BME280;40363;52.270;10.546;2023-05-23T02:17:28;75753.53;;;-147.06;100.00
54453;BME280;40363;52.270;10.546;2023-05-23T02:19:56;75753.53;;;-147.06;100.00
54453;BME280;40363;52.270;10.546;2023-05-23T02:22:23;75761.75;;;-147.06;100.00
54453;BME280;40363;52.270;10.546;2023-05-23T02:24:49;75761.75;;;-147.06;100.00
54453;BME280;40363;52.270;10.546;2023-05-23T02:27:16;75767.91;;;-147.06;100.00
54453;BME280;40363;52.270;10.546;2023-05-23T02:29:43;75769.97;;;-147.06;100.00
54453;BME280;40363;52.270;10.546;2023-05-23T02:32:09;75765.88;;;-147.06;100.00
54453;BME280;40363;52.270;10.546;2023-05-23T02:34:36;75753.53;;;-147.06;100.00
54453;BME280;40363;52.270;10.546;2023-05-23T02:37:04;75763.81;;;-147.06;100.00
54453;BME280;40363;52.270;10.546;2023-05-23T02:39:31;75774.09;;;-147.06;100.00
54453;BME280;40363;52.270;10.546;2023-05-23T02:41:57;75790.53;;;-147.06;100.00
54453;BME280;40363;52.270;10.546;2023-05-23T02:44:24;75790.53;;;-147.06;100.00
54453;BME280;40363;52.270;10.546;2023-05-23T02:46:51;75786.41;;;-147.06;100.00
54453;BME280;40363;52.270;10.546;2023-05-23T02:49:17;75792.59;;;-147.06;100.00
54453;BME280;40363;52.270;10.546;2023-05-23T02:51:44;75809.03;;;-147.06;100.00
54453;BME280;40363;52.270;10.546;2023-05-23T02:54:12;75802.84;;;-147.06;100.00
54453;BME280;40363;52.270;10.546;2023-05-23T02:56:38;75811.06;;;-147.06;100.00
54453;BME280;40363;52.270;10.546;2023-05-23T02:59:05;75819.28;;;-147.06;100.00
54453;BME280;40363;52.270;10.546;2023-05-23T03:01:31;75823.41;;;-147.06;100.00
54453;BME280;40363;52.270;10.546;2023-05-23T03:03:58;75835.75;;;-147.06;100.00
54453;BME280;40363;52.270;10.546;2023-05-23T03:06:24;75852.19;;;-147.06;100.00
54453;BME280;40363;52.270;10.546;2023-05-23T03:08:51;75862.44;;;-147.06;100.00
54453;BME280;40363;52.270;10.546;2023-05-23T03:11:19;75856.28;;;-147.06;100.00
54453;BME280;40363;52.270;10.546;2023-05-23T03:13:46;75874.78;;;-147.06;100.00
54453;BME280;40363;52.270;10.546;2023-05-23T03:16:13;75889.16;;;-147.06;100.00
54453;BME280;40363;52.270;10.546;2023-05-23T03:18:40;75913.81;;;-147.06;100.00
54453;BME280;40363;52.270;10.546;2023-05-23T03:21:06;75913.81;;;-147.06;100.00
54453;BME280;40363;52.270;10.546;2023-05-23T03:23:33;75915.88;;;-147.06;100.00
54453;BME280;40363;52.270;10.546;2023-05-23T03:26:00;75930.28;;;-147.06;100.00
54453;BME280;40363;52.270;10.546;2023-05-23T03:28:29;75934.38;;;-147.06;100.00
54453;BME280;40363;52.270;10.546;2023-05-23T03:30:56;75928.22;;;-147.06;100.00
54453;BME280;40363;52.270;10.546;2023-05-23T03:33:23;75934.38;;;-147.06;100.00
54453;BME280;40363;52.270;10.546;2023-05-23T03:35:50;75950.81;;;-147.06;100.00
54453;BME280;40363;52.270;10.546;2023-05-23T03:38:17;75954.94;;;-147.06;100.00
54453;BME280;40363;52.270;10.546;2023-05-23T03:40:43;75948.75;;;-147.06;100.00
54453;BME280;40363;52.270;10.546;2023-05-23T03:43:10;75952.88;;;-147.06;100.00
54453;BME280;40363;52.270;10.546;2023-05-23T03:45:38;75967.25;;;-147.06;100.00
54453;BME280;40363;52.270;10.546;2023-05-23T03:48:04;75971.38;;;-147.06;100.00
54453;BME280;40363;52.270;10.546;2023-05-23T03:50:31;75957.00;;;-147.06;100.00
54453;BME280;40363;52.270;10.546;2023-05-23T03:52:57;75969.31;;;-147.06;100.00
54453;BME280;40363;52.270;10.546;2023-05-23T03:55:24;75967.25;;;-147.06;100.00
54453;BME280;40363;52.270;10.546;2023-05-23T03:57:51;75973.44;;;-147.06;100.00
54453;BME280;40363;52.270;10.546;2023-05-23T04:00:17;75967.25;;;-147.06;100.00
54453;BME280;40363;52.270;10.546;2023-05-23T04:02:45;75971.38;;;-147.06;100.00
54453;BME280;40363;52.270;10.546;2023-05-23T04:05:12;75967.25;;;-147.06;100.00
54453;BME280;40363;52.270;10.546;2023-05-23T04:07:39;75977.53;;;-147.06;100.00
54453;BME280;40363;52.270;10.546;2023-05-23T04:10:07;75979.59;;;-147.06;100.00
54453;BME280;40363;52.270;10.546;2023-05-23T04:12:33;75981.66;;;-147.06;100.00
54453;BME280;40363;52.270;10.546;2023-05-23T04:15:00;75983.69;;;-147.06;100.00
54453;BME280;40363;52.270;10.546;2023-05-23T04:17:28;75991.91;;;-147.06;100.00
54453;BME280;40363;52.270;10.546;2023-05-23T04:19:57;75991.91;;;-147.06;100.00
54453;BME280;40363;52.270;10.546;2023-05-23T04:22:23;75991.91;;;-147.06;100.00
54453;BME280;40363;52.270;10.546;2023-05-23T04:24:50;75979.59;;;-147.06;100.00
54453;BME280;40363;52.270;10.546;2023-05-23T04:27:16;75983.69;;;-147.06;100.00
54453;BME280;40363;52.270;10.546;2023-05-23T04:29:44;76004.25;;;-147.06;100.00
54453;BME280;40363;52.270;10.546;2023-05-23T04:32:11;76010.41;;;-147.06;100.00
54453;BME280;40363;52.270;10.546;2023-05-23T04:34:37;76006.31;;;-147.06;100.00
54453;BME280;40363;52.270;10.546;2023-05-23T04:37:06;76002.19;;;-147.06;100.00
54453;BME280;40363;52.270;10.546;2023-05-23T04:39:33;75991.91;;;-147.06;100.00
54453;BME280;40363;52.270;10.546;2023-05-23T04:42:00;75979.59;;;-147.06;100.00
54453;BME280;40363;52.270;10.546;2023-05-23T04:44:27;75971.38;;;-147.06;100.00
54453;BME280;40363;52.270;10.546;2023-05-23T04:46:54;75985.75;;;-147.06;100.00
54453;BME280;40363;52.270;10.546;2023-05-23T04:49:21;75989.88;;;-147.06;100.00
54453;BME280;40363;52.270;10.546;2023-05-23T04:51:47;75991.91;;;-147.06;100.00
54453;BME280;40363;52.270;10.546;2023-05-23T04:54:15;75996.03;;;-147.06;100.00
54453;BME280;40363;52.270;10.546;2023-05-23T04:56:42;75979.59;;;-147.06;100.00
54453;BME280;40363;52.270;10.546;2023-05-23T04:59:08;75975.47;;;-147.06;100.00
54453;BME280;40363;52.270;10.546;2023-05-23T05:01:35;75963.16;;;-147.06;100.00
54453;BME280;40363;52.270;10.546;2023-05-23T05:04:05;75954.94;;;-147.06;100.00
54453;BME280;40363;52.270;10.546;2023-05-23T05:06:31;75959.03;;;-147.06;100.00
54453;BME280;40363;52.270;10.546;2023-05-23T05:08:58;75967.25;;;-147.06;100.00
54453;BME280;40363;52.270;10.546;2023-05-23T05:11:26;75973.44;;;-147.06;100.00
54453;BME280;40363;52.270;10.546;2023-05-23T05:13:52;75973.44;;;-147.06;100.00
54453;BME280;40363;52.270;10.546;2023-05-23T05:16:19;75973.44;;;-147.06;100.00
54453;BME280;40363;52.270;10.546;2023-05-23T05:18:46;75969.31;;;-147.06;100.00
54453;BME280;40363;52.270;10.546;2023-05-23T05:21:13;75944.66;;;-147.06;100.00
54453;BME280;40363;52.270;10.546;2023-05-23T05:23:39;75938.50;;;-147.06;100.00
54453;BME280;40363;52.270;10.546;2023-05-23T05:26:06;75944.66;;;-147.06;100.00
54453;BME280;40363;52.270;10.546;2023-05-23T05:28:34;75963.16;;;-147.06;100.00
54453;BME280;40363;52.270;10.546;2023-05-23T05:31:00;75967.25;;;-147.06;100.00
54453;BME280;40363;52.270;10.546;2023-05-23T05:33:29;75965.22;;;-147.06;100.00
54453;BME280;40363;52.270;10.546;2023-05-23T05:36:00;75967.25;;;-147.06;100.00
54453;BME280;40363;52.270;10.546;2023-05-23T05:38:26;75973.44;;;-147.06;100.00
54453;BME280;40363;52.270;10.546;2023-05-23T05:40:53;75975.47;;;-147.06;100.00
54453;BME280;40363;52.270;10.546;2023-05-23T05:43:19;75969.31;;;-147.06;100.00
54453;BME280;40363;52.270;10.546;2023-05-23T05:45:48;75971.38;;;-147.06;100.00
54453;BME280;40363;52.270;10.546;2023-05-23T05:48:14;75973.44;;;-147.06;100.00
54453;BME280;40363;52.270;10.546;2023-05-23T05:50:41;75954.94;;;-147.06;100.00
54453;BME280;40363;52.270;10.546;2023-05-23T05:53:09;75959.03;;;-147.06;100.00
54453;BME280;40363;52.270;10.546;2023-05-23T05:55:36;75961.09;;;-147.06;100.00
54453;BME280;40363;52.270;10.546;2023-05-23T05:58:03;75954.94;;;-147.06;100.00
54453;BME280;40363;52.270;10.546;2023-05-23T06:00:30;75963.16;;;-147.06;100.00
54453;BME280;40363;52.270;10.546;2023-05-23T06:02:58;75954.94;;;-147.06;100.00
54453;BME280;40363;52.270;10.546;2023-05-23T06:05:24;75969.31;;;-147.06;100.00
54453;BME280;40363;52.270;10.546;2023-05-23T06:07:51;75987.81;;;-147.06;100.00
54453;BME280;40363;52.270;10.546;2023-05-23T06:10:17;76002.19;;;-147.06;100.00
54453;BME280;40363;52.270;10.546;2023-05-23T06:12:44;76004.25;;;-147.06;100.00
54453;BME280;40363;52.270;10.546;2023-05-23T06:15:11;75987.81;;;-147.06;100.00
54453;BME280;40363;52.270;10.546;2023-05-23T06:17:38;75991.91;;;-147.06;100.00
54453;BME280;40363;52.270;10.546;2023-05-23T06:20:07;75979.59;;;-147.06;100.00
54453;BME280;40363;52.270;10.546;2023-05-23T06:22:34;75991.91;;;-147.06;100.00
54453;BME280;40363;52.270;10.546;2023-05-23T06:25:01;75989.88;;;-147.06;100.00
54453;BME280;40363;52.270;10.546;2023-05-23T06:27:27;75991.91;;;-147.06;100.00
54453;BME280;40363;52.270;10.546;2023-05-23T06:29:54;75993.97;;;-147.06;100.00
54453;BME280;40363;52.270;10.546;2023-05-23T06:32:20;75993.97;;;-147.06;100.00
54453;BME280;40363;52.270;10.546;2023-05-23T06:34:47;76028.91;;;-147.06;100.00
54453;BME280;40363;52.270;10.546;2023-05-23T06:37:14;76022.75;;;-147.06;100.00
54453;BME280;40363;52.270;10.546;2023-05-23T06:39:42;76028.91;;;-147.06;100.00
54453;BME280;40363;52.270;10.546;2023-05-23T06:42:08;76028.91;;;-147.06;100.00
54453;BME280;40363;52.270;10.546;2023-05-23T06:44:35;76020.69;;;-147.06;100.00
54453;BME280;40363;52.270;10.546;2023-05-23T06:47:02;76039.19;;;-147.06;100.00
54453;BME280;40363;52.270;10.546;2023-05-23T06:49:28;76037.13;;;-147.06;100.00
54453;BME280;40363;52.270;10.546;2023-05-23T06:51:55;76024.81;;;-147.06;100.00
54453;BME280;40363;52.270;10.546;2023-05-23T06:54:23;76028.91;;;-147.06;100.00
54453;BME280;40363;52.270;10.546;2023-05-23T06:56:49;76045.34;;;-147.06;100.00
54453;BME280;40363;52.270;10.546;2023-05-23T06:59:16;76041.25;;;-147.06;100.00
54453;BME280;40363;52.270;10.546;2023-05-23T07:01:42;76033.03;;;-147.06;100.00
54453;BME280;40363;52.270;10.546;2023-05-23T07:04:09;76024.81;;;-147.06;100.00
54453;BME280;40363;52.270;10.546;2023-05-23T07:06:37;76012.47;;;-147.06;100.00
54453;BME280;40363;52.270;10.546;2023-05-23T07:09:04;76002.19;;;-147.06;100.00
54453;BME280;40363;52.270;10.546;2023-05-23T07:11:32;75998.09;;;-147.06;100.00
54453;BME280;40363;52.270;10.546;2023-05-23T07:13:59;75991.91;;;-147.06;100.00
54453;BME280;40363;52.270;10.546;2023-05-23T07:16:26;75996.03;;;-147.06;100.00
54453;BME280;40363;52.270;10.546;2023-05-23T07:18:52;76008.38;;;-147.06;100.00
54453;BME280;40363;52.270;10.546;2023-05-23T07:21:19;76002.19;;;-147.06;100.00
54453;BME280;40363;52.270;10.546;2023-05-23T07:23:45;75975.47;;;-147.06;100.00
54453;BME280;40363;52.270;10.546;2023-05-23T07:26:12;75979.59;;;-147.06;100.00
54453;BME280;40363;52.270;10.546;2023-05-23T07:28:40;75983.69;;;-147.06;100.00
54453;BME280;40363;52.270;10.546;2023-05-23T07:31:06;75983.69;;;-147.06;100.00
54453;BME280;40363;52.270;10.546;2023-05-23T07:33:34;75981.66;;;-147.06;100.00
54453;BME280;40363;52.270;10.546;2023-05-23T07:36:00;75987.81;;;-147.06;100.00
54453;BME280;40363;52.270;10.546;2023-05-23T07:38:27;75991.91;;;-147.06;100.00
54453;BME280;40363;52.270;10.546;2023-05-23T07:40:53;75985.75;;;-147.06;100.00
54453;BME280;40363;52.270;10.546;2023-05-23T07:43:20;75979.59;;;-147.06;100.00
54453;BME280;40363;52.270;10.546;2023-05-23T07:45:48;75991.91;;;-147.06;100.00
54453;BME280;40363;52.270;10.546;2023-05-23T07:48:14;75989.88;;;-147.06;100.00
54453;BME280;40363;52.270;10.546;2023-05-23T07:50:41;75998.09;;;-147.06;100.00
54453;BME280;40363;52.270;10.546;2023-05-23T07:53:07;75987.81;;;-147.06;100.00
54453;BME280;40363;52.270;10.546;2023-05-23T07:55:34;75979.59;;;-147.06;100.00
54453;BME280;40363;52.270;10.546;2023-05-23T07:58:01;75979.59;;;-147.06;100.00
54453;BME280;40363;52.270;10.546;2023-05-23T08:00:27;75991.91;;;-147.06;100.00
54453;BME280;40363;52.270;10.546;2023-05-23T08:02:55;75996.03;;;-147.06;100.00
54453;BME280;40363;52.270;10.546;2023-05-23T08:05:22;76020.69;;;-147.06;100.00
54453;BME280;40363;52.270;10.546;2023-05-23T08:07:48;76010.41;;;-147.06;100.00
54453;BME280;40363;52.270;10.546;2023-05-23T08:10:15;76020.69;;;-147.06;100.00
54453;BME280;40363;52.270;10.546;2023-05-23T08:12:41;76008.38;;;-147.06;100.00
54453;BME280;40363;52.270;10.546;2023-05-23T08:15:08;76004.25;;;-147.06;100.00
54453;BME280;40363;52.270;10.546;2023-05-23T08:17:35;76020.69;;;-147.06;100.00
54453;BME280;40363;52.270;10.546;2023-05-23T08:20:04;76026.84;;;-147.06;100.00
54453;BME280;40363;52.270;10.546;2023-05-23T08:22:31;76039.19;;;-147.06;100.00
54453;BME280;40363;52.270;10.546;2023-05-23T08:24:58;76047.41;;;-147.06;100.00
54453;BME280;40363;52.270;10.546;2023-05-23T08:27:24;76030.97;;;-147.06;100.00
54453;BME280;40363;52.270;10.546;2023-05-23T08:29:52;76045.34;;;-147.06;100.00
54453;BME280;40363;52.270;10.546;2023-05-23T08:32:19;76045.34;;;-147.06;100.00
54453;BME280;40363;52.270;10.546;2023-05-23T08:34:46;76055.63;;;-147.06;100.00
54453;BME280;40363;52.270;10.546;2023-05-23T08:37:15;76059.75;;;-147.06;100.00
54453;BME280;40363;52.270;10.546;2023-05-23T08:39:41;76078.25;;;-147.06;100.00
54453;BME280;40363;52.270;10.546;2023-05-23T08:42:08;76076.19;;;-147.06;100.00
54453;BME280;40363;52.270;10.546;2023-05-23T08:44:34;76088.50;;;-147.06;100.00
54453;BME280;40363;52.270;10.546;2023-05-23T08:47:03;76086.47;;;-147.06;100.00
54453;BME280;40363;52.270;10.546;2023-05-23T08:49:30;76094.69;;;-147.06;100.00
54453;BME280;40363;52.270;10.546;2023-05-23T08:52:00;76088.50;;;-147.06;100.00
54453;BME280;40363;52.270;10.546;2023-05-23T08:54:29;76090.56;;;-147.06;100.00
54453;BME280;40363;52.270;10.546;2023-05-23T08:56:56;76104.97;;;-147.06;100.00
54453;BME280;40363;52.270;10.546;2023-05-23T08:59:25;76123.44;;;-147.06;100.00
54453;BME280;40363;52.270;10.546;2023-05-23T09:01:54;76125.50;;;-147.06;100.00
54453;BME280;40363;52.270;10.546;2023-05-23T09:04:21;76148.13;;;-147.06;100.00
54453;BME280;40363;52.270;10.546;2023-05-23T09:06:47;76146.06;;;-147.06;100.00
54453;BME280;40363;52.270;10.546;2023-05-23T09:09:15;76146.06;;;-147.06;100.00
54453;BME280;40363;52.270;10.546;2023-05-23T09:11:43;76156.34;;;-147.06;100.00
54453;BME280;40363;52.270;10.546;2023-05-23T09:14:10;76168.66;;;-147.06;100.00
54453;BME280;40363;52.270;10.546;2023-05-23T09:16:39;76181.00;;;-147.06;100.00
54453;BME280;40363;52.270;10.546;2023-05-23T09:19:12;76191.28;;;-147.06;100.00
54453;BME280;40363;52.270;10.546;2023-05-23T09:21:42;76189.22;;;-147.06;100.00
54453;BME280;40363;52.270;10.546;2023-05-23T09:24:09;76185.09;;;-147.06;100.00
54453;BME280;40363;52.270;10.546;2023-05-23T09:26:36;76197.44;;;-147.06;100.00
54453;BME280;40363;52.270;10.546;2023-05-23T09:29:05;76187.16;;;-147.06;100.00
54453;BME280;40363;52.270;10.546;2023-05-23T09:31:32;76189.22;;;-147.06;100.00
54453;BME280;40363;52.270;10.546;2023-05-23T09:33:59;76197.44;;;-147.06;100.00
54453;BME280;40363;52.270;10.546;2023-05-23T09:36:27;76201.56;;;-147.06;100.00
54453;BME280;40363;52.270;10.546;2023-05-23T09:38:54;76172.78;;;-147.06;100.00
54453;BME280;40363;52.270;10.546;2023-05-23T09:41:21;76181.00;;;-147.06;100.00
54453;BME280;40363;52.270;10.546;2023-05-23T09:43:50;76176.88;;;-147.06;100.00
54453;BME280;40363;52.270;10.546;2023-05-23T09:46:19;76181.00;;;-147.06;100.00
54453;BME280;40363;52.270;10.546;2023-05-23T09:48:46;76178.94;;;-147.06;100.00
54453;BME280;40363;52.270;10.546;2023-05-23T09:51:13;76178.94;;;-147.06;100.00
54453;BME280;40363;52.270;10.546;2023-05-23T09:53:39;76172.78;;;-147.06;100.00
54453;BME280;40363;52.270;10.546;2023-05-23T09:56:08;76166.63;;;-147.06;100.00
54453;BME280;40363;52.270;10.546;2023-05-23T09:58:37;76201.56;;;-147.06;100.00
54453;BME280;40363;52.270;10.546;2023-05-23T10:01:06;76205.66;;;-147.06;100.00
54453;BME280;40363;52.270;10.546;2023-05-23T10:03:41;76226.22;;;-147.06;100.00
54453;BME280;40363;52.270;10.546;2023-05-23T10:06:16;76218.00;;;-147.06;100.00
54453;BME280;40363;52.270;10.546;2023-05-23T10:08:45;76222.09;;;-147.06;100.00
54453;BME280;40363;52.270;10.546;2023-05-23T10:14:16;76244.72;;;-147.06;100.00
54453;BME280;40363;52.270;10.546;2023-05-23T10:16:48;76259.09;;;-147.06;100.00
54453;BME280;40363;52.270;10.546;2023-05-23T10:19:22;76269.38;;;-147.06;100.00
54453;BME280;40363;52.270;10.546;2023-05-23T10:21:55;76287.88;;;-147.06;100.00
54453;BME280;40363;52.270;10.546;2023-05-23T10:24:24;76283.75;;;-147.06;100.00
54453;BME280;40363;52.270;10.546;2023-05-23T10:26:52;76279.66;;;-147.06;100.00
54453;BME280;40363;52.270;10.546;2023-05-23T10:29:19;76294.03;;;-147.06;100.00
54453;BME280;40363;52.270;10.546;2023-05-23T10:31:46;76310.47;;;-147.06;100.00
54453;BME280;40363;52.270;10.546;2023-05-23T10:34:26;76312.53;;;-147.06;100.00
54453;BME280;40363;52.270;10.546;2023-05-23T10:37:01;76322.81;;;-147.06;100.00
54453;BME280;40363;52.270;10.546;2023-05-23T10:39:39;76335.13;;;-147.06;100.00
54453;BME280;40363;52.270;10.546;2023-05-23T10:42:12;76357.75;;;-147.06;100.00
54453;BME280;40363;52.270;10.546;2023-05-23T10:44:41;76361.84;;;-147.06;100.00
54453;BME280;40363;52.270;10.546;2023-05-23T10:47:07;76370.09;;;-147.06;100.00
54453;BME280;40363;52.270;10.546;2023-05-23T10:49:38;76370.09;;;-147.06;100.00
54453;BME280;40363;52.270;10.546;2023-05-23T10:52:06;76374.19;;;-147.06;100.00
54453;BME280;40363;52.270;10.546;2023-05-23T10:54:34;76378.31;;;-147.06;100.00
54453;BME280;40363;52.270;10.546;2023-05-23T10:57:02;76374.19;;;-147.06;100.00
54453;BME280;40363;52.270;10.546;2023-05-23T10:59:28;76390.63;;;-147.06;100.00
54453;BME280;40363;52.270;10.546;2023-05-23T11:01:55;76382.41;;;-147.06;100.00
54453;BME280;40363;52.270;10.546;2023-05-23T11:04:25;76386.53;;;-147.06;100.00
54453;BME280;40363;52.270;10.546;2023-05-23T11:06:53;76392.69;;;-147.06;100.00
54453;BME280;40363;52.270;10.546;2023-05-23T11:09:21;76400.91;;;-147.06;100.00
54453;BME280;40363;52.270;10.546;2023-05-23T11:11:52;76413.25;;;-147.06;100.00
54453;BME280;40363;52.270;10.546;2023-05-23T11:14:19;76425.56;;;-147.06;100.00
54453;BME280;40363;52.270;10.546;2023-05-23T11:16:56;76433.78;;;-147.06;100.00
54453;BME280;40363;52.270;10.546;2023-05-23T11:19:24;76435.84;;;-147.06;100.00
54453;BME280;40363;52.270;10.546;2023-05-23T11:21:54;76446.13;;;-147.06;100.00
54453;BME280;40363;52.270;10.546;2023-05-23T11:24:22;76439.97;;;-147.06;100.00
54453;BME280;40363;52.270;10.546;2023-05-23T11:26:53;76454.34;;;-147.06;100.00
54453;BME280;40363;52.270;10.546;2023-05-23T11:29:24;76460.53;;;-147.06;100.00
54453;BME280;40363;52.270;10.546;2023-05-23T11:31:51;76468.75;;;-147.06;100.00
54453;BME280;40363;52.270;10.546;2023-05-23T11:34:18;76476.97;;;-147.06;100.00
54453;BME280;40363;52.270;10.546;2023-05-23T11:36:44;76483.13;;;-147.06;100.00
54453;BME280;40363;52.270;10.546;2023-05-23T11:39:12;76489.28;;;-147.06;100.00
54453;BME280;40363;52.270;10.546;2023-05-23T11:41:41;76489.28;;;-147.06;100.00
54453;BME280;40363;52.270;10.546;2023-05-23T11:44:11;76493.41;;;-147.06;100.00
54453;BME280;40363;52.270;10.546;2023-05-23T11:46:38;76505.75;;;-147.06;100.00
54453;BME280;40363;52.270;10.546;2023-05-23T11:49:09;76505.75;;;-147.06;100.00
54453;BME280;40363;52.270;10.546;2023-05-23T11:51:36;76505.75;;;-147.06;100.00
54453;BME280;40363;52.270;10.546;2023-05-23T11:54:03;76499.56;;;-147.06;100.00
54453;BME280;40363;52.270;10.546;2023-05-23T11:56:31;76509.84;;;-147.06;100.00
54453;BME280;40363;52.270;10.546;2023-05-23T11:58:59;76530.41;;;-147.06;100.00
54453;BME280;40363;52.270;10.546;2023-05-23T12:01:28;76530.41;;;-147.06;100.00
54453;BME280;40363;52.270;10.546;2023-05-23T12:03:55;76546.84;;;-147.06;100.00
54453;BME280;40363;52.270;10.546;2023-05-23T12:06:23;76546.84;;;-147.06;100.00
54453;BME280;40363;52.270;10.546;2023-05-23T12:08:51;76561.22;;;-147.06;100.00
54453;BME280;40363;52.270;10.546;2023-05-23T12:11:17;76555.06;;;-147.06;100.00
54453;BME280;40363;52.270;10.546;2023-05-23T12:13:44;76569.44;;;-147.06;100.00
54453;BME280;40363;52.270;10.546;2023-05-23T12:16:13;76571.50;;;-147.06;100.00
54453;BME280;40363;52.270;10.546;2023-05-23T12:18:41;76569.44;;;-147.06;100.00
54453;BME280;40363;52.270;10.546;2023-05-23T12:21:08;76577.69;;;-147.06;100.00
54453;BME280;40363;52.270;10.546;2023-05-23T12:23:35;76579.72;;;-147.06;100.00
54453;BME280;40363;52.270;10.546;2023-05-23T12:26:03;76579.72;;;-147.06;100.00